createdAt,value
2018-07-16T00:03:31.530Z,57.06
2018-07-16T00:06:00.911Z,57.55
2018-07-16T00:08:29.991Z,57.22
2018-07-16T00:10:58.956Z,57.52
2018-07-16T00:13:28.302Z,57.71
2018-07-16T00:15:57.288Z,57.95
2018-07-16T00:18:26.270Z,57.10
2018-07-16T00:20:55.291Z,57.28
2018-07-16T00:23:24.327Z,58.35
2018-07-16T00:25:53.163Z,58.04
2018-07-16T00:28:22.440Z,58.03
2018-07-16T00:30:52.485Z,58.27
2018-07-16T00:33:21.146Z,57.91
2018-07-16T00:35:50.199Z,58.01
2018-07-16T00:38:19.031Z,58.74
2018-07-16T00:40:48.762Z,58.09
2018-07-16T00:43:18.300Z,58.79
2018-07-16T00:45:47.437Z,59.03
2018-07-16T00:48:16.482Z,58.97
2018-07-16T00:50:45.591Z,59.78
2018-07-16T00:53:14.754Z,59.43
2018-07-16T00:55:43.609Z,59.61
2018-07-16T00:58:12.823Z,59.87
2018-07-16T01:00:41.626Z,59.84
2018-07-16T01:03:10.502Z,60.58
2018-07-16T01:05:39.994Z,60.66
2018-07-16T01:08:09.238Z,61.35
2018-07-16T01:10:38.437Z,61.25
2018-07-16T01:13:07.399Z,61.41
2018-07-16T01:15:36.111Z,62.11
2018-07-16T01:18:05.140Z,62.11
2018-07-16T01:20:34.106Z,62.49
2018-07-16T01:23:03.560Z,63.33
2018-07-16T01:25:51.266Z,62.88
2018-07-16T01:28:20.141Z,63.00
2018-07-16T01:30:49.005Z,63.49
2018-07-16T01:33:18.060Z,63.13
2018-07-16T01:41:35.107Z,63.58
2018-07-16T01:44:03.792Z,64.54
2018-07-16T01:46:37.463Z,64.48
2018-07-16T01:49:06.579Z,64.16
2018-07-16T01:51:35.758Z,64.82
2018-07-16T01:54:04.763Z,64.76
2018-07-16T01:56:34.047Z,64.11
2018-07-16T01:59:03.178Z,64.33
2018-07-16T02:01:32.467Z,64.47
2018-07-16T02:04:01.768Z,64.95
2018-07-16T02:18:17.705Z,66.04
2018-07-16T02:20:47.867Z,66.89
2018-07-16T02:23:16.534Z,66.69
2018-07-16T02:25:45.801Z,66.94
2018-07-16T02:28:15.071Z,67.15
2018-07-16T02:30:44.771Z,67.25
2018-07-16T02:33:14.269Z,67.17
2018-07-16T02:47:32.203Z,68.19
2018-07-16T02:50:01.392Z,68.47
2018-07-16T02:52:30.379Z,68.31
2018-07-16T02:54:59.542Z,68.26
2018-07-16T02:57:28.475Z,68.05
2018-07-16T02:59:57.774Z,68.51
2018-07-16T03:02:27.280Z,68.68
2018-07-16T03:04:56.271Z,69.02
2018-07-16T03:07:25.793Z,69.93
2018-07-16T03:09:54.777Z,69.30
2018-07-16T03:12:23.634Z,69.04
2018-07-16T03:14:52.839Z,68.61
2018-07-16T03:17:21.887Z,68.83
2018-07-16T03:19:51.077Z,68.06
2018-07-16T03:22:20.065Z,66.89
2018-07-16T03:24:49.385Z,66.13
2018-07-16T03:27:18.291Z,63.77
2018-07-16T03:29:47.358Z,62.31
2018-07-16T03:32:16.747Z,60.19
2018-07-16T03:34:46.559Z,58.83
2018-07-16T03:37:15.346Z,57.34
2018-07-16T03:39:44.437Z,55.50
2018-07-16T03:42:30.052Z,54.78
2018-07-16T03:44:59.321Z,53.47
2018-07-16T03:47:28.512Z,52.49
2018-07-16T03:49:57.507Z,50.85
2018-07-16T03:52:26.571Z,49.24
2018-07-16T03:54:55.620Z,48.31
2018-07-16T03:57:24.970Z,47.37
2018-07-16T03:59:54.106Z,46.05
2018-07-16T04:02:23.123Z,46.84
2018-07-16T04:04:52.103Z,46.12
2018-07-16T04:07:21.366Z,43.93
2018-07-16T04:09:50.926Z,42.91
2018-07-16T04:12:20.101Z,42.15
2018-07-16T04:14:49.773Z,40.86
2018-07-16T04:17:18.594Z,39.34
2018-07-16T04:19:47.365Z,37.42
2018-07-16T04:22:16.840Z,36.29
2018-07-16T04:24:45.661Z,35.26
2018-07-16T04:27:14.459Z,34.75
2018-07-16T04:29:43.592Z,34.63
2018-07-16T04:32:12.619Z,34.08
2018-07-16T04:34:41.536Z,33.06
2018-07-16T04:37:10.655Z,32.41
2018-07-16T04:39:39.739Z,32.34
2018-07-16T04:42:10.164Z,32.42
2018-07-16T04:44:39.564Z,31.00
2018-07-16T04:47:11.488Z,32.26
2018-07-16T04:49:40.608Z,31.66
2018-07-16T04:52:10.333Z,30.33
2018-07-16T04:54:39.855Z,30.06
2018-07-16T04:57:09.057Z,29.19
2018-07-16T04:59:38.452Z,29.25
2018-07-16T05:02:07.428Z,28.54
2018-07-16T05:04:36.474Z,28.40
2018-07-16T05:07:05.747Z,27.87
2018-07-16T05:09:34.812Z,26.67
2018-07-16T05:12:04.001Z,27.82
2018-07-16T05:14:33.299Z,27.87
2018-07-16T05:17:02.521Z,28.54
2018-07-16T05:19:31.693Z,29.03
2018-07-16T05:22:00.940Z,28.34
2018-07-16T05:24:29.979Z,27.73
2018-07-16T05:26:58.987Z,26.90
2018-07-16T05:29:28.090Z,27.01
2018-07-16T05:31:56.927Z,27.15
2018-07-16T05:34:26.292Z,27.49
2018-07-16T05:36:55.321Z,27.41
2018-07-16T05:39:24.380Z,26.39
2018-07-16T05:41:53.253Z,26.78
2018-07-16T05:44:22.570Z,25.56
2018-07-16T05:46:51.569Z,27.53
2018-07-16T05:49:20.694Z,27.58
2018-07-16T05:51:49.660Z,27.82
2018-07-16T05:54:18.477Z,26.88
2018-07-16T05:56:48.090Z,26.44
2018-07-16T05:59:17.182Z,26.51
2018-07-16T06:01:46.248Z,26.87
2018-07-16T06:04:15.947Z,26.00
2018-07-16T06:06:44.843Z,25.75
2018-07-16T06:09:14.030Z,24.59
2018-07-16T06:11:43.001Z,26.29
2018-07-16T06:14:12.028Z,26.34
2018-07-16T06:16:40.761Z,26.86
2018-07-16T06:19:09.710Z,25.14
2018-07-16T06:21:39.105Z,24.80
2018-07-16T06:24:08.538Z,24.65
2018-07-16T06:26:37.235Z,23.61
2018-07-16T06:29:06.247Z,24.10
2018-07-16T06:31:35.083Z,23.17
2018-07-16T06:34:04.062Z,25.25
2018-07-16T06:36:34.400Z,24.93
2018-07-16T06:39:03.880Z,25.49
2018-07-16T06:41:33.031Z,25.42
2018-07-16T06:44:02.345Z,23.94
2018-07-16T06:46:31.812Z,24.80
2018-07-16T06:49:01.325Z,25.54
2018-07-16T06:51:30.756Z,26.36
2018-07-16T06:53:59.819Z,26.25
2018-07-16T06:56:28.714Z,24.87
2018-07-16T06:58:58.363Z,25.03
2018-07-16T07:01:27.495Z,26.21
2018-07-16T07:03:56.412Z,27.29
2018-07-16T07:06:25.461Z,27.17
2018-07-16T07:08:54.608Z,26.12
2018-07-16T07:11:23.396Z,26.51
2018-07-16T07:13:52.635Z,25.39
2018-07-16T07:16:27.448Z,24.22
2018-07-16T07:18:56.525Z,23.41
2018-07-16T07:21:25.964Z,24.94
2018-07-16T07:23:55.439Z,23.94
2018-07-16T07:26:24.750Z,24.25
2018-07-16T07:28:53.531Z,24.08
2018-07-16T07:31:22.304Z,23.88
2018-07-16T07:33:51.363Z,26.45
2018-07-16T07:36:21.343Z,24.96
2018-07-16T07:38:50.448Z,24.71
2018-07-16T07:41:20.241Z,23.24
2018-07-16T07:43:50.030Z,24.03
2018-07-16T07:46:18.870Z,24.82
2018-07-16T07:48:48.161Z,25.03
2018-07-16T07:51:17.008Z,25.91
2018-07-16T07:53:46.082Z,26.14
2018-07-16T07:56:15.314Z,26.15
2018-07-16T07:58:44.306Z,25.74
2018-07-16T08:01:13.734Z,25.23
2018-07-16T08:03:43.055Z,25.52
2018-07-16T08:06:12.033Z,25.48
2018-07-16T08:08:41.088Z,25.74
2018-07-16T08:11:10.141Z,25.83
2018-07-16T08:13:39.222Z,24.44
2018-07-16T08:16:08.391Z,24.15
2018-07-16T08:18:37.561Z,24.02
2018-07-16T08:21:06.984Z,23.75
2018-07-16T08:23:35.879Z,24.19
2018-07-16T08:26:05.159Z,22.93
2018-07-16T08:28:34.175Z,23.82
2018-07-16T08:31:03.271Z,23.02
2018-07-16T08:33:32.461Z,22.64
2018-07-16T08:36:01.460Z,22.18
2018-07-16T08:38:30.663Z,22.09
2018-07-16T08:41:00.085Z,22.24
2018-07-16T08:43:29.083Z,24.16
2018-07-16T08:45:58.438Z,23.70
2018-07-16T08:48:27.255Z,23.72
2018-07-16T08:50:56.127Z,23.33
2018-07-16T08:53:25.242Z,22.51
2018-07-16T08:55:54.647Z,23.31
2018-07-16T08:58:23.553Z,24.35
2018-07-16T09:00:52.778Z,24.73
2018-07-16T09:03:22.823Z,23.12
2018-07-16T09:06:08.037Z,24.66
2018-07-16T09:08:37.682Z,24.58
2018-07-16T09:11:06.949Z,23.47
2018-07-16T09:13:36.165Z,23.11
2018-07-16T09:16:05.199Z,22.86
2018-07-16T09:18:33.934Z,25.59
2018-07-16T09:21:02.946Z,25.63
2018-07-16T09:23:32.091Z,24.79
2018-07-16T09:26:01.223Z,26.82
2018-07-16T09:28:30.422Z,28.86
2018-07-16T09:30:59.705Z,28.34
2018-07-16T09:33:28.605Z,28.42
2018-07-16T09:35:57.608Z,29.61
2018-07-16T09:38:26.463Z,28.59
2018-07-16T09:40:55.601Z,27.42
2018-07-16T09:43:24.476Z,28.14
2018-07-16T09:45:53.301Z,26.95
2018-07-16T09:48:22.563Z,28.27
2018-07-16T09:50:51.500Z,27.08
2018-07-16T09:53:20.170Z,27.22
2018-07-16T09:55:49.053Z,28.00
2018-07-16T09:58:18.331Z,28.65
2018-07-16T10:01:55.109Z,27.56
2018-07-16T10:04:23.766Z,27.32
2018-07-16T10:06:52.715Z,26.94
2018-07-16T10:09:22.123Z,25.77
2018-07-16T10:11:51.098Z,25.52
2018-07-16T10:14:20.040Z,24.91
2018-07-16T10:16:49.170Z,26.83
2018-07-16T10:19:18.106Z,25.30
2018-07-16T10:21:47.184Z,26.23
2018-07-16T10:24:16.251Z,26.99
2018-07-16T10:26:45.190Z,28.01
2018-07-16T10:29:14.380Z,26.22
2018-07-16T10:31:43.801Z,24.98
2018-07-16T10:34:13.319Z,25.11
2018-07-16T10:36:42.081Z,26.01
2018-07-16T10:39:11.237Z,25.51
2018-07-16T10:41:40.281Z,26.46
2018-07-16T10:44:09.277Z,25.97
2018-07-16T10:46:38.478Z,25.84
2018-07-16T10:49:08.060Z,23.71
2018-07-16T10:51:36.847Z,24.46
2018-07-16T10:54:05.880Z,26.58
2018-07-16T10:56:34.824Z,27.67
2018-07-16T10:59:03.711Z,27.71
2018-07-16T11:01:32.551Z,28.04
2018-07-16T11:04:01.709Z,27.82
2018-07-16T11:06:30.904Z,27.68
2018-07-16T11:09:00.067Z,28.46
2018-07-16T11:11:28.906Z,28.66
2018-07-16T11:13:57.895Z,28.72
2018-07-16T11:16:27.117Z,28.22
2018-07-16T11:18:56.056Z,27.22
2018-07-16T11:21:24.880Z,27.76
2018-07-16T11:23:53.899Z,25.90
2018-07-16T11:26:22.957Z,26.71
2018-07-16T11:28:52.044Z,28.63
2018-07-16T11:31:21.156Z,27.21
2018-07-16T11:33:50.257Z,28.42
2018-07-16T11:36:19.277Z,27.41
2018-07-16T11:38:48.593Z,27.03
2018-07-16T11:41:18.173Z,26.44
2018-07-16T11:43:47.177Z,27.45
2018-07-16T11:46:16.096Z,28.21
2018-07-16T11:48:45.041Z,28.95
2018-07-16T11:51:14.032Z,29.73
2018-07-16T11:53:43.276Z,29.02
2018-07-16T11:56:12.182Z,29.85
2018-07-16T11:58:40.988Z,28.83
2018-07-16T12:01:09.823Z,28.91
2018-07-16T12:03:38.771Z,28.78
2018-07-16T12:06:13.402Z,27.50
2018-07-16T12:08:42.398Z,27.56
2018-07-16T12:11:11.282Z,28.02
2018-07-16T12:13:40.168Z,29.32
2018-07-16T12:16:09.135Z,30.68
2018-07-16T12:18:38.145Z,30.52
2018-07-16T12:21:07.473Z,30.88
2018-07-16T12:23:36.246Z,30.96
2018-07-16T12:26:05.974Z,30.57
2018-07-16T12:28:34.851Z,30.44
2018-07-16T12:31:03.547Z,30.89
2018-07-16T12:33:32.521Z,30.23
2018-07-16T12:36:02.350Z,28.79
2018-07-16T12:38:31.524Z,28.88
2018-07-16T12:41:00.413Z,26.97
2018-07-16T12:43:29.551Z,28.35
2018-07-16T12:45:58.620Z,29.53
2018-07-16T12:48:27.921Z,30.34
2018-07-16T12:50:57.030Z,30.50
2018-07-16T12:53:25.990Z,30.48
2018-07-16T12:55:55.100Z,30.03
2018-07-16T12:58:24.311Z,29.74
2018-07-16T13:00:52.979Z,29.40
2018-07-16T13:03:21.763Z,31.34
2018-07-16T13:05:51.409Z,30.58
2018-07-16T13:08:20.183Z,30.48
2018-07-16T13:10:49.242Z,31.53
2018-07-16T13:13:18.070Z,31.30
2018-07-16T13:15:47.713Z,30.79
2018-07-16T13:18:16.627Z,31.33
2018-07-16T13:20:45.287Z,31.27
2018-07-16T13:23:14.348Z,31.51
2018-07-16T13:25:43.433Z,31.73
2018-07-16T13:28:12.474Z,30.50
2018-07-16T13:30:41.424Z,30.67
2018-07-16T13:33:10.427Z,29.57
2018-07-16T13:35:39.644Z,30.61
2018-07-16T13:38:08.743Z,30.31
2018-07-16T13:40:37.789Z,30.58
2018-07-16T13:43:06.663Z,29.02
2018-07-16T13:45:35.314Z,29.89
2018-07-16T13:48:04.315Z,30.11
2018-07-16T13:50:33.743Z,28.81
2018-07-16T13:53:03.313Z,30.19
2018-07-16T13:55:32.243Z,31.21
2018-07-16T13:58:01.429Z,30.62
2018-07-16T14:00:30.608Z,30.14
2018-07-16T14:02:59.688Z,30.87
2018-07-16T14:05:28.608Z,31.25
2018-07-16T14:07:57.756Z,31.92
2018-07-16T14:10:26.620Z,31.67
2018-07-16T14:12:55.622Z,32.43
2018-07-16T14:15:24.494Z,31.68
2018-07-16T14:17:53.772Z,31.08
2018-07-16T14:20:23.020Z,31.61
2018-07-16T14:22:51.838Z,31.82
2018-07-16T14:25:20.963Z,31.48
2018-07-16T14:27:50.028Z,32.49
2018-07-16T14:30:18.869Z,31.00
2018-07-16T14:32:47.975Z,31.45
2018-07-16T14:35:17.006Z,32.26
2018-07-16T14:37:45.864Z,32.02
2018-07-16T14:40:14.975Z,31.97
2018-07-16T14:42:44.154Z,31.65
2018-07-16T14:45:13.246Z,31.52
2018-07-16T14:47:42.407Z,30.49
2018-07-16T14:50:11.477Z,32.00
2018-07-16T14:52:40.534Z,31.56
2018-07-16T14:55:09.504Z,30.78
2018-07-16T14:57:39.178Z,31.52
2018-07-16T15:00:08.879Z,31.50
2018-07-16T15:02:37.757Z,30.68
2018-07-16T15:05:06.970Z,31.75
2018-07-16T15:07:35.870Z,32.30
2018-07-16T15:10:04.831Z,32.08
2018-07-16T15:12:34.110Z,31.60
2018-07-16T15:15:03.768Z,31.22
2018-07-16T15:17:33.301Z,31.61
2018-07-16T15:20:02.370Z,31.99
2018-07-16T15:22:31.779Z,31.06
2018-07-16T15:25:00.580Z,32.34
2018-07-16T15:27:29.871Z,32.98
2018-07-16T15:29:58.882Z,33.67
2018-07-16T15:32:27.866Z,33.00
2018-07-16T15:34:57.197Z,32.15
2018-07-16T15:37:27.090Z,32.74
2018-07-16T15:39:56.259Z,32.75
2018-07-16T15:42:25.641Z,32.80
2018-07-16T15:44:54.674Z,32.82
2018-07-16T15:47:23.667Z,32.75
2018-07-16T15:49:52.423Z,32.22
2018-07-16T15:52:21.952Z,32.16
2018-07-16T15:54:50.748Z,32.50
2018-07-16T15:57:20.029Z,32.79
2018-07-16T15:59:48.823Z,33.02
2018-07-16T16:02:17.749Z,32.28
2018-07-16T16:04:47.804Z,32.20
2018-07-16T16:07:16.751Z,32.03
2018-07-16T16:09:46.505Z,33.03
2018-07-16T16:12:15.569Z,32.66
2018-07-16T16:14:44.564Z,33.05
2018-07-16T16:17:14.906Z,32.75
2018-07-16T16:19:44.120Z,33.54
2018-07-16T16:22:12.797Z,33.56
2018-07-16T16:24:42.290Z,34.51
2018-07-16T16:27:11.227Z,34.24
2018-07-16T16:29:40.782Z,34.84
2018-07-16T16:32:10.090Z,35.61
2018-07-16T16:34:38.995Z,35.49
2018-07-16T16:37:08.070Z,35.61
2018-07-16T16:39:37.378Z,35.50
2018-07-16T16:42:07.005Z,36.35
2018-07-16T16:44:36.092Z,36.76
2018-07-16T16:47:05.477Z,35.93
2018-07-16T16:49:34.810Z,36.49
2018-07-16T16:52:03.897Z,36.42
2018-07-16T16:54:34.184Z,37.06
2018-07-16T16:57:03.145Z,36.20
2018-07-16T16:59:34.372Z,36.75
2018-07-16T17:02:04.243Z,37.13
2018-07-16T17:04:33.347Z,37.42
2018-07-16T17:07:03.324Z,37.36
2018-07-16T17:09:34.772Z,37.22
2018-07-16T17:12:05.476Z,36.97
2018-07-16T17:14:37.826Z,37.29
2018-07-16T17:17:07.018Z,37.49
2018-07-16T17:19:36.683Z,38.44
2018-07-16T17:22:08.183Z,37.48
2018-07-16T17:24:38.331Z,38.07
2018-07-16T17:27:07.302Z,38.35
2018-07-16T17:29:38.911Z,38.31
2018-07-16T17:32:11.204Z,39.71
2018-07-16T17:34:40.540Z,40.08
2018-07-16T17:37:10.126Z,41.36
2018-07-16T17:39:39.685Z,41.66
2018-07-16T17:42:09.295Z,41.79
2018-07-16T17:44:38.597Z,42.10
2018-07-16T17:47:07.698Z,42.31
2018-07-16T17:49:37.203Z,42.65
2018-07-16T17:52:07.222Z,43.27
2018-07-16T17:54:38.583Z,42.80
2018-07-16T17:57:07.575Z,43.72
2018-07-16T17:59:36.982Z,43.91
2018-07-16T18:02:06.519Z,43.71
2018-07-16T18:04:35.781Z,44.21
2018-07-16T18:07:04.561Z,44.64
2018-07-16T18:09:33.508Z,44.84
2018-07-16T18:12:02.711Z,45.13
2018-07-16T18:14:31.973Z,46.21
2018-07-16T18:17:01.493Z,46.70
2018-07-16T18:19:30.771Z,46.18
2018-07-16T18:21:59.770Z,45.69
2018-07-16T18:24:29.374Z,45.45
2018-07-16T18:26:58.516Z,45.57
2018-07-16T18:29:27.361Z,45.76
2018-07-16T18:31:56.467Z,46.37
2018-07-16T18:34:25.356Z,46.12
2018-07-16T18:36:54.752Z,45.67
2018-07-16T18:39:24.287Z,45.46
2018-07-16T18:41:53.582Z,45.98
2018-07-16T18:44:22.667Z,45.09
2018-07-16T18:46:52.178Z,45.42
2018-07-16T18:49:22.017Z,44.58
2018-07-16T18:51:50.946Z,44.53
2018-07-16T18:54:20.432Z,44.99
2018-07-16T18:56:49.466Z,45.26
2018-07-16T18:59:18.365Z,44.69
2018-07-16T19:01:47.510Z,44.02
2018-07-16T19:04:16.875Z,44.09
2018-07-16T19:06:46.546Z,43.92
2018-07-16T19:09:16.187Z,44.25
2018-07-16T19:11:45.285Z,44.14
2018-07-16T19:14:15.008Z,44.59
2018-07-16T19:16:44.051Z,44.48
2018-07-16T19:19:12.800Z,44.35
2018-07-16T19:21:42.060Z,45.00
2018-07-16T19:24:11.891Z,44.57
2018-07-16T19:26:41.056Z,44.97
2018-07-16T19:29:10.729Z,44.67
2018-07-16T19:31:39.722Z,44.78
2018-07-16T19:34:08.759Z,45.05
2018-07-16T19:36:38.413Z,45.83
2018-07-16T19:39:09.374Z,46.16
2018-07-16T19:41:38.444Z,45.89
2018-07-16T19:44:08.139Z,46.02
2018-07-16T19:46:37.483Z,46.44
2018-07-16T19:49:07.219Z,45.99
2018-07-16T19:51:36.155Z,46.12
2018-07-16T19:54:06.139Z,47.03
2018-07-16T19:56:35.572Z,46.71
2018-07-16T19:59:04.375Z,46.01
2018-07-16T20:01:33.409Z,48.04
2018-07-16T20:04:02.276Z,46.80
2018-07-16T20:06:31.951Z,47.89
2018-07-16T20:09:01.793Z,48.11
2018-07-16T20:11:30.788Z,48.30
2018-07-16T20:14:02.061Z,48.64
2018-07-16T20:16:42.102Z,48.74
2018-07-16T20:19:11.593Z,49.22
2018-07-16T20:21:40.666Z,48.91
2018-07-16T20:24:10.552Z,47.94
2018-07-16T20:26:39.390Z,47.45
2018-07-16T20:29:08.028Z,47.41
2018-07-16T20:31:37.903Z,47.88
2018-07-16T20:34:06.688Z,47.95
2018-07-16T20:36:35.477Z,49.11
2018-07-16T20:39:06.849Z,49.75
2018-07-16T20:41:37.059Z,49.66
2018-07-16T20:44:06.154Z,49.50
2018-07-16T20:46:35.248Z,49.60
2018-07-16T20:49:04.306Z,49.65
2018-07-16T20:51:33.434Z,49.54
2018-07-16T20:54:02.648Z,49.64
2018-07-16T20:56:31.728Z,49.75
2018-07-16T20:59:00.625Z,49.80
2018-07-16T21:01:29.742Z,50.28
2018-07-16T21:03:58.635Z,50.60
2018-07-16T21:06:27.508Z,51.53
2018-07-16T21:08:56.827Z,50.99
2018-07-16T21:11:26.971Z,50.67
2018-07-16T21:13:55.892Z,50.99
2018-07-16T21:16:25.549Z,51.04
2018-07-16T21:18:54.664Z,51.11
2018-07-16T21:21:23.706Z,51.11
2018-07-16T21:23:52.707Z,51.67
2018-07-16T21:26:22.018Z,51.72
2018-07-16T21:28:51.529Z,51.76
2018-07-16T21:31:20.403Z,51.95
2018-07-16T21:33:49.526Z,53.15
2018-07-16T21:36:18.723Z,54.79
2018-07-16T21:38:47.807Z,55.51
2018-07-16T21:41:16.954Z,55.82
2018-07-16T21:43:46.359Z,56.58
2018-07-16T21:46:15.279Z,57.03
2018-07-16T21:48:44.235Z,56.97
2018-07-16T21:51:13.888Z,56.94
2018-07-16T21:53:43.445Z,56.79
2018-07-16T21:56:12.656Z,57.58
2018-07-16T21:58:41.602Z,58.08
2018-07-16T22:01:10.567Z,58.30
2018-07-16T22:03:40.116Z,58.46
2018-07-16T22:06:09.299Z,58.46
2018-07-16T22:08:38.194Z,58.49
2018-07-16T22:11:07.102Z,59.19
2018-07-16T22:13:35.975Z,58.85
2018-07-16T22:16:05.203Z,58.60
2018-07-16T22:18:34.607Z,58.19
2018-07-16T22:21:03.734Z,58.58
2018-07-16T22:23:33.197Z,59.04
2018-07-16T22:26:02.363Z,58.79
2018-07-16T22:28:31.134Z,58.61
2018-07-16T22:31:00.115Z,58.85
2018-07-16T22:33:29.206Z,60.08
2018-07-16T22:35:58.374Z,60.02
2018-07-16T22:38:27.464Z,60.18
2018-07-16T22:40:56.362Z,60.92
2018-07-16T22:43:25.748Z,61.37
2018-07-16T22:45:54.865Z,61.85
2018-07-16T22:48:24.258Z,61.81
2018-07-16T22:50:53.177Z,61.61
2018-07-16T22:53:22.343Z,61.80
2018-07-16T22:55:51.466Z,61.97
2018-07-16T22:58:20.761Z,62.25
2018-07-16T23:00:49.611Z,61.77
2018-07-16T23:03:18.759Z,61.98
2018-07-16T23:05:47.837Z,63.10
2018-07-16T23:08:17.847Z,62.81
2018-07-16T23:10:47.494Z,62.60
2018-07-16T23:13:16.341Z,62.58
2018-07-16T23:15:45.139Z,62.23
2018-07-16T23:18:14.342Z,61.98
2018-07-16T23:20:43.237Z,62.44
2018-07-16T23:23:12.658Z,62.31
2018-07-16T23:25:41.727Z,62.60
2018-07-16T23:28:10.839Z,62.41
2018-07-16T23:30:39.938Z,62.72
2018-07-16T23:33:09.683Z,62.81
2018-07-16T23:35:38.546Z,63.22
2018-07-16T23:38:07.719Z,63.43
2018-07-16T23:40:36.445Z,64.09
2018-07-16T23:43:05.313Z,64.83
2018-07-16T23:45:34.050Z,64.57
2018-07-16T23:48:03.152Z,65.51
2018-07-16T23:50:32.411Z,65.37
2018-07-16T23:53:02.207Z,64.59
2018-07-16T23:55:31.907Z,63.75
2018-07-16T23:58:00.702Z,62.89
